sensor_id;sensor_type;location;lat;lon;timestamp;P1;durP1;ratioP1;P2;durP2;ratioP2
26696;SDS011;14312;52.614;13.496;2023-09-19T00:02:43;3.35;;;2.17;;
26696;SDS011;14312;52.614;13.496;2023-09-19T00:05:36;4.20;;;2.10;;
26696;SDS011;14312;52.614;13.496;2023-09-19T00:08:30;2.65;;;2.00;;
26696;SDS011;14312;52.614;13.496;2023-09-19T00:11:18;3.30;;;2.17;;
26696;SDS011;14312;52.614;13.496;2023-09-19T00:14:05;2.45;;;2.15;;
26696;SDS011;14312;52.614;13.496;2023-09-19T00:16:53;3.60;;;2.25;;
26696;SDS011;14312;52.614;13.496;2023-09-19T00:19:40;3.22;;;1.90;;
26696;SDS011;14312;52.614;13.496;2023-09-19T00:22:28;3.13;;;2.30;;
26696;SDS011;14312;52.614;13.496;2023-09-19T00:25:14;4.18;;;2.40;;
26696;SDS011;14312;52.614;13.496;2023-09-19T00:28:01;2.75;;;2.20;;
26696;SDS011;14312;52.614;13.496;2023-09-19T00:30:47;3.60;;;2.30;;
26696;SDS011;14312;52.614;13.496;2023-09-19T00:33:36;4.28;;;2.10;;
26696;SDS011;14312;52.614;13.496;2023-09-19T00:36:22;2.22;;;1.73;;
26696;SDS011;14312;52.614;13.496;2023-09-19T00:39:08;2.90;;;2.13;;
26696;SDS011;14312;52.614;13.496;2023-09-19T00:41:56;2.55;;;1.80;;
26696;SDS011;14312;52.614;13.496;2023-09-19T00:44:41;3.17;;;2.13;;
26696;SDS011;14312;52.614;13.496;2023-09-19T00:47:27;3.25;;;1.90;;
26696;SDS011;14312;52.614;13.496;2023-09-19T00:50:19;3.85;;;1.75;;
26696;SDS011;14312;52.614;13.496;2023-09-19T00:53:07;2.45;;;1.55;;
26696;SDS011;14312;52.614;13.496;2023-09-19T00:55:53;1.88;;;1.52;;
26696;SDS011;14312;52.614;13.496;2023-09-19T00:58:40;4.72;;;1.67;;
26696;SDS011;14312;52.614;13.496;2023-09-19T01:01:26;2.42;;;1.90;;
26696;SDS011;14312;52.614;13.496;2023-09-19T01:04:12;2.10;;;1.90;;
26696;SDS011;14312;52.614;13.496;2023-09-19T01:06:58;2.95;;;1.98;;
26696;SDS011;14312;52.614;13.496;2023-09-19T01:09:44;3.92;;;2.10;;
26696;SDS011;14312;52.614;13.496;2023-09-19T01:12:33;2.10;;;1.90;;
26696;SDS011;14312;52.614;13.496;2023-09-19T01:21:44;3.15;;;1.90;;
26696;SDS011;14312;52.614;13.496;2023-09-19T01:30:57;2.00;;;1.75;;
26696;SDS011;14312;52.614;13.496;2023-09-19T01:36:45;2.85;;;1.80;;
26696;SDS011;14312;52.614;13.496;2023-09-19T01:39:31;2.05;;;1.85;;
26696;SDS011;14312;52.614;13.496;2023-09-19T01:51:32;1.98;;;1.70;;
26696;SDS011;14312;52.614;13.496;2023-09-19T01:54:40;2.85;;;1.60;;
26696;SDS011;14312;52.614;13.496;2023-09-19T01:57:48;2.13;;;1.60;;
26696;SDS011;14312;52.614;13.496;2023-09-19T02:00:45;1.58;;;1.40;;
26696;SDS011;14312;52.614;13.496;2023-09-19T02:03:33;1.88;;;1.35;;
26696;SDS011;14312;52.614;13.496;2023-09-19T02:06:21;1.48;;;1.30;;
26696;SDS011;14312;52.614;13.496;2023-09-19T02:09:07;2.28;;;1.40;;
26696;SDS011;14312;52.614;13.496;2023-09-19T02:11:54;2.67;;;1.55;;
26696;SDS011;14312;52.614;13.496;2023-09-19T02:14:41;1.83;;;1.50;;
26696;SDS011;14312;52.614;13.496;2023-09-19T02:17:27;2.63;;;1.30;;
26696;SDS011;14312;52.614;13.496;2023-09-19T02:20:13;2.45;;;1.42;;
26696;SDS011;14312;52.614;13.496;2023-09-19T02:23:02;1.83;;;1.70;;
26696;SDS011;14312;52.614;13.496;2023-09-19T02:25:52;2.60;;;1.92;;
26696;SDS011;14312;52.614;13.496;2023-09-19T02:28:43;2.92;;;1.55;;
26696;SDS011;14312;52.614;13.496;2023-09-19T02:31:31;1.55;;;1.35;;
26696;SDS011;14312;52.614;13.496;2023-09-19T02:34:17;2.10;;;1.70;;
26696;SDS011;14312;52.614;13.496;2023-09-19T02:37:03;1.08;;;1.02;;
26696;SDS011;14312;52.614;13.496;2023-09-19T02:39:50;1.50;;;1.40;;
26696;SDS011;14312;52.614;13.496;2023-09-19T02:42:36;1.70;;;1.35;;
26696;SDS011;14312;52.614;13.496;2023-09-19T02:45:22;1.50;;;1.40;;
26696;SDS011;14312;52.614;13.496;2023-09-19T02:48:09;1.30;;;1.20;;
26696;SDS011;14312;52.614;13.496;2023-09-19T02:50:57;1.92;;;1.40;;
26696;SDS011;14312;52.614;13.496;2023-09-19T02:53:43;2.10;;;1.50;;
26696;SDS011;14312;52.614;13.496;2023-09-19T02:56:29;1.30;;;1.20;;
26696;SDS011;14312;52.614;13.496;2023-09-19T02:59:16;1.80;;;1.50;;
26696;SDS011;14312;52.614;13.496;2023-09-19T03:02:02;2.03;;;1.30;;
26696;SDS011;14312;52.614;13.496;2023-09-19T03:04:50;1.48;;;1.38;;
26696;SDS011;14312;52.614;13.496;2023-09-19T03:07:36;1.15;;;1.08;;
26696;SDS011;14312;52.614;13.496;2023-09-19T03:10:23;2.05;;;1.70;;
26696;SDS011;14312;52.614;13.496;2023-09-19T03:13:10;1.33;;;1.25;;
26696;SDS011;14312;52.614;13.496;2023-09-19T03:15:56;1.90;;;1.42;;
26696;SDS011;14312;52.614;13.496;2023-09-19T03:18:43;1.60;;;1.42;;
26696;SDS011;14312;52.614;13.496;2023-09-19T03:21:30;1.70;;;1.60;;
26696;SDS011;14312;52.614;13.496;2023-09-19T03:24:16;2.13;;;1.60;;
26696;SDS011;14312;52.614;13.496;2023-09-19T03:27:02;1.55;;;1.45;;
26696;SDS011;14312;52.614;13.496;2023-09-19T03:29:48;1.63;;;1.48;;
26696;SDS011;14312;52.614;13.496;2023-09-19T03:32:43;1.65;;;1.40;;
26696;SDS011;14312;52.614;13.496;2023-09-19T03:35:30;1.80;;;1.38;;
26696;SDS011;14312;52.614;13.496;2023-09-19T03:38:16;1.30;;;1.20;;
26696;SDS011;14312;52.614;13.496;2023-09-19T03:41:03;1.50;;;1.40;;
26696;SDS011;14312;52.614;13.496;2023-09-19T03:43:49;1.50;;;1.30;;
26696;SDS011;14312;52.614;13.496;2023-09-19T03:46:35;2.65;;;1.40;;
26696;SDS011;14312;52.614;13.496;2023-09-19T03:49:21;1.15;;;1.05;;
26696;SDS011;14312;52.614;13.496;2023-09-19T03:52:07;1.20;;;1.10;;
26696;SDS011;14312;52.614;13.496;2023-09-19T03:54:53;2.40;;;1.10;;
26696;SDS011;14312;52.614;13.496;2023-09-19T03:57:39;2.47;;;1.25;;
26696;SDS011;14312;52.614;13.496;2023-09-19T04:00:25;1.40;;;1.30;;
26696;SDS011;14312;52.614;13.496;2023-09-19T04:03:12;1.38;;;1.20;;
26696;SDS011;14312;52.614;13.496;2023-09-19T04:06:04;1.90;;;1.10;;
26696;SDS011;14312;52.614;13.496;2023-09-19T04:08:50;1.00;;;1.00;;
26696;SDS011;14312;52.614;13.496;2023-09-19T04:11:37;1.88;;;1.20;;
26696;SDS011;14312;52.614;13.496;2023-09-19T04:14:22;1.77;;;1.33;;
26696;SDS011;14312;52.614;13.496;2023-09-19T04:17:08;1.83;;;1.10;;
26696;SDS011;14312;52.614;13.496;2023-09-19T04:19:55;1.45;;;1.33;;
26696;SDS011;14312;52.614;13.496;2023-09-19T04:22:41;1.10;;;1.00;;
26696;SDS011;14312;52.614;13.496;2023-09-19T04:25:27;2.22;;;1.30;;
26696;SDS011;14312;52.614;13.496;2023-09-19T04:28:13;1.38;;;1.27;;
26696;SDS011;14312;52.614;13.496;2023-09-19T04:31:00;1.00;;;1.00;;
26696;SDS011;14312;52.614;13.496;2023-09-19T04:33:46;1.30;;;1.20;;
26696;SDS011;14312;52.614;13.496;2023-09-19T04:36:32;1.25;;;1.10;;
26696;SDS011;14312;52.614;13.496;2023-09-19T04:39:18;1.17;;;1.08;;
26696;SDS011;14312;52.614;13.496;2023-09-19T04:42:04;1.60;;;1.40;;
26696;SDS011;14312;52.614;13.496;2023-09-19T04:44:50;2.22;;;1.17;;
26696;SDS011;14312;52.614;13.496;2023-09-19T04:47:39;2.10;;;1.30;;
26696;SDS011;14312;52.614;13.496;2023-09-19T04:50:25;1.17;;;1.10;;
26696;SDS011;14312;52.614;13.496;2023-09-19T04:53:13;1.65;;;1.30;;
26696;SDS011;14312;52.614;13.496;2023-09-19T04:55:59;1.58;;;1.10;;
26696;SDS011;14312;52.614;13.496;2023-09-19T04:58:44;1.30;;;1.00;;
26696;SDS011;14312;52.614;13.496;2023-09-19T05:01:31;1.40;;;1.30;;
26696;SDS011;14312;52.614;13.496;2023-09-19T05:04:16;1.50;;;1.40;;
26696;SDS011;14312;52.614;13.496;2023-09-19T05:07:02;1.38;;;1.27;;
26696;SDS011;14312;52.614;13.496;2023-09-19T05:09:49;1.73;;;1.45;;
26696;SDS011;14312;52.614;13.496;2023-09-19T05:12:35;1.88;;;1.38;;
26696;SDS011;14312;52.614;13.496;2023-09-19T05:15:21;2.95;;;1.60;;
26696;SDS011;14312;52.614;13.496;2023-09-19T05:18:07;1.35;;;1.25;;
26696;SDS011;14312;52.614;13.496;2023-09-19T05:20:53;1.70;;;1.60;;
26696;SDS011;14312;52.614;13.496;2023-09-19T05:23:40;2.65;;;1.40;;
26696;SDS011;14312;52.614;13.496;2023-09-19T05:26:26;2.15;;;1.80;;
26696;SDS011;14312;52.614;13.496;2023-09-19T05:29:12;1.90;;;1.30;;
26696;SDS011;14312;52.614;13.496;2023-09-19T05:31:59;1.85;;;1.40;;
26696;SDS011;14312;52.614;13.496;2023-09-19T05:34:45;1.45;;;1.20;;
26696;SDS011;14312;52.614;13.496;2023-09-19T05:37:32;2.63;;;1.52;;
26696;SDS011;14312;52.614;13.496;2023-09-19T05:40:18;1.35;;;1.20;;
26696;SDS011;14312;52.614;13.496;2023-09-19T05:43:04;1.20;;;1.10;;
26696;SDS011;14312;52.614;13.496;2023-09-19T05:45:51;1.23;;;1.13;;
26696;SDS011;14312;52.614;13.496;2023-09-19T05:48:37;2.55;;;1.42;;
26696;SDS011;14312;52.614;13.496;2023-09-19T05:51:25;1.55;;;1.45;;
26696;SDS011;14312;52.614;13.496;2023-09-19T05:54:14;1.92;;;1.30;;
26696;SDS011;14312;52.614;13.496;2023-09-19T05:57:00;1.30;;;1.13;;
26696;SDS011;14312;52.614;13.496;2023-09-19T05:59:47;1.73;;;1.33;;
26696;SDS011;14312;52.614;13.496;2023-09-19T06:02:35;2.17;;;1.40;;
26696;SDS011;14312;52.614;13.496;2023-09-19T06:05:22;1.65;;;1.30;;
26696;SDS011;14312;52.614;13.496;2023-09-19T06:08:17;2.08;;;1.25;;
26696;SDS011;14312;52.614;13.496;2023-09-19T06:11:03;1.70;;;1.50;;
26696;SDS011;14312;52.614;13.496;2023-09-19T06:13:53;1.58;;;1.45;;
26696;SDS011;14312;52.614;13.496;2023-09-19T06:16:39;1.98;;;1.67;;
26696;SDS011;14312;52.614;13.496;2023-09-19T06:19:26;2.28;;;1.45;;
26696;SDS011;14312;52.614;13.496;2023-09-19T06:22:14;1.63;;;1.35;;
26696;SDS011;14312;52.614;13.496;2023-09-19T06:25:04;3.33;;;1.55;;
26696;SDS011;14312;52.614;13.496;2023-09-19T06:27:53;2.67;;;1.60;;
26696;SDS011;14312;52.614;13.496;2023-09-19T06:30:40;1.67;;;1.48;;
26696;SDS011;14312;52.614;13.496;2023-09-19T06:33:26;1.60;;;1.50;;
26696;SDS011;14312;52.614;13.496;2023-09-19T06:36:12;3.67;;;1.73;;
26696;SDS011;14312;52.614;13.496;2023-09-19T06:38:58;1.50;;;1.40;;
26696;SDS011;14312;52.614;13.496;2023-09-19T06:41:44;2.05;;;1.50;;
26696;SDS011;14312;52.614;13.496;2023-09-19T06:44:31;1.40;;;1.30;;
26696;SDS011;14312;52.614;13.496;2023-09-19T06:47:18;2.10;;;1.60;;
26696;SDS011;14312;52.614;13.496;2023-09-19T06:50:05;2.97;;;1.70;;
26696;SDS011;14312;52.614;13.496;2023-09-19T06:52:52;2.50;;;1.58;;
26696;SDS011;14312;52.614;13.496;2023-09-19T06:55:40;2.08;;;1.55;;
26696;SDS011;14312;52.614;13.496;2023-09-19T06:58:26;2.33;;;1.70;;
26696;SDS011;14312;52.614;13.496;2023-09-19T07:01:12;2.03;;;1.58;;
26696;SDS011;14312;52.614;13.496;2023-09-19T07:04:00;2.00;;;1.55;;
26696;SDS011;14312;52.614;13.496;2023-09-19T07:06:49;1.88;;;1.70;;
26696;SDS011;14312;52.614;13.496;2023-09-19T07:09:36;2.17;;;1.90;;
26696;SDS011;14312;52.614;13.496;2023-09-19T07:12:22;2.72;;;2.00;;
26696;SDS011;14312;52.614;13.496;2023-09-19T07:15:08;2.25;;;1.80;;
26696;SDS011;14312;52.614;13.496;2023-09-19T07:17:55;3.60;;;2.08;;
26696;SDS011;14312;52.614;13.496;2023-09-19T07:20:41;1.85;;;1.50;;
26696;SDS011;14312;52.614;13.496;2023-09-19T07:23:34;2.58;;;1.65;;
26696;SDS011;14312;52.614;13.496;2023-09-19T07:26:20;3.08;;;1.70;;
26696;SDS011;14312;52.614;13.496;2023-09-19T07:29:06;2.00;;;1.55;;
26696;SDS011;14312;52.614;13.496;2023-09-19T07:31:52;3.20;;;1.80;;
26696;SDS011;14312;52.614;13.496;2023-09-19T07:34:38;2.70;;;1.73;;
26696;SDS011;14312;52.614;13.496;2023-09-19T07:37:26;2.28;;;1.55;;
26696;SDS011;14312;52.614;13.496;2023-09-19T07:40:12;2.05;;;1.85;;
26696;SDS011;14312;52.614;13.496;2023-09-19T07:42:58;1.95;;;1.50;;
26696;SDS011;14312;52.614;13.496;2023-09-19T07:45:47;2.35;;;1.67;;
26696;SDS011;14312;52.614;13.496;2023-09-19T07:48:33;1.50;;;1.40;;
26696;SDS011;14312;52.614;13.496;2023-09-19T07:51:21;1.77;;;1.40;;
26696;SDS011;14312;52.614;13.496;2023-09-19T07:54:07;2.97;;;1.73;;
26696;SDS011;14312;52.614;13.496;2023-09-19T07:56:53;1.85;;;1.50;;
26696;SDS011;14312;52.614;13.496;2023-09-19T07:59:41;1.75;;;1.50;;
26696;SDS011;14312;52.614;13.496;2023-09-19T08:02:27;2.28;;;1.80;;
26696;SDS011;14312;52.614;13.496;2023-09-19T08:05:14;2.58;;;1.40;;
26696;SDS011;14312;52.614;13.496;2023-09-19T08:08:03;1.50;;;1.40;;
26696;SDS011;14312;52.614;13.496;2023-09-19T08:10:56;3.17;;;1.73;;
26696;SDS011;14312;52.614;13.496;2023-09-19T08:13:42;2.42;;;1.80;;
26696;SDS011;14312;52.614;13.496;2023-09-19T08:16:34;2.40;;;1.83;;
26696;SDS011;14312;52.614;13.496;2023-09-19T08:19:20;2.92;;;1.60;;
26696;SDS011;14312;52.614;13.496;2023-09-19T08:22:08;3.35;;;1.92;;
26696;SDS011;14312;52.614;13.496;2023-09-19T08:24:56;1.77;;;1.52;;
26696;SDS011;14312;52.614;13.496;2023-09-19T08:27:42;2.92;;;1.63;;
26696;SDS011;14312;52.614;13.496;2023-09-19T08:30:29;2.15;;;1.58;;
26696;SDS011;14312;52.614;13.496;2023-09-19T08:33:16;2.53;;;1.80;;
26696;SDS011;14312;52.614;13.496;2023-09-19T08:36:02;2.10;;;1.50;;
26696;SDS011;14312;52.614;13.496;2023-09-19T08:38:52;3.10;;;2.03;;
26696;SDS011;14312;52.614;13.496;2023-09-19T08:41:38;2.13;;;1.75;;
26696;SDS011;14312;52.614;13.496;2023-09-19T08:44:24;2.88;;;1.70;;
26696;SDS011;14312;52.614;13.496;2023-09-19T08:47:11;1.77;;;1.60;;
26696;SDS011;14312;52.614;13.496;2023-09-19T08:50:07;2.83;;;1.90;;
26696;SDS011;14312;52.614;13.496;2023-09-19T08:53:00;3.63;;;2.03;;
26696;SDS011;14312;52.614;13.496;2023-09-19T08:55:47;3.30;;;1.90;;
26696;SDS011;14312;52.614;13.496;2023-09-19T09:01:45;1.98;;;1.42;;
26696;SDS011;14312;52.614;13.496;2023-09-19T09:04:32;2.13;;;1.92;;
26696;SDS011;14312;52.614;13.496;2023-09-19T09:07:19;2.75;;;2.47;;
26696;SDS011;14312;52.614;13.496;2023-09-19T09:10:07;3.78;;;2.00;;
26696;SDS011;14312;52.614;13.496;2023-09-19T09:12:53;3.53;;;2.13;;
26696;SDS011;14312;52.614;13.496;2023-09-19T09:15:43;2.55;;;1.92;;
26696;SDS011;14312;52.614;13.496;2023-09-19T09:18:30;3.80;;;1.73;;
26696;SDS011;14312;52.614;13.496;2023-09-19T09:21:16;3.25;;;1.73;;
26696;SDS011;14312;52.614;13.496;2023-09-19T09:27:23;4.53;;;1.95;;
26696;SDS011;14312;52.614;13.496;2023-09-19T09:30:09;3.55;;;2.17;;
26696;SDS011;14312;52.614;13.496;2023-09-19T09:33:16;3.72;;;2.10;;
26696;SDS011;14312;52.614;13.496;2023-09-19T09:36:02;2.97;;;1.95;;
26696;SDS011;14312;52.614;13.496;2023-09-19T09:38:50;4.50;;;1.90;;
26696;SDS011;14312;52.614;13.496;2023-09-19T09:41:40;2.80;;;2.10;;
26696;SDS011;14312;52.614;13.496;2023-09-19T09:44:27;5.32;;;2.38;;
26696;SDS011;14312;52.614;13.496;2023-09-19T09:47:20;3.17;;;2.33;;
26696;SDS011;14312;52.614;13.496;2023-09-19T09:50:47;3.33;;;2.08;;
26696;SDS011;14312;52.614;13.496;2023-09-19T09:53:33;3.38;;;2.20;;
26696;SDS011;14312;52.614;13.496;2023-09-19T09:56:19;2.65;;;1.98;;
26696;SDS011;14312;52.614;13.496;2023-09-19T09:59:05;3.63;;;2.20;;
26696;SDS011;14312;52.614;13.496;2023-09-19T10:01:51;3.75;;;2.08;;
26696;SDS011;14312;52.614;13.496;2023-09-19T10:04:39;3.53;;;1.95;;
26696;SDS011;14312;52.614;13.496;2023-09-19T10:07:37;3.10;;;1.95;;
26696;SDS011;14312;52.614;13.496;2023-09-19T10:13:29;3.22;;;1.92;;
26696;SDS011;14312;52.614;13.496;2023-09-19T10:16:16;4.88;;;2.40;;
26696;SDS011;14312;52.614;13.496;2023-09-19T10:19:04;3.75;;;2.30;;
26696;SDS011;14312;52.614;13.496;2023-09-19T10:21:54;3.92;;;2.10;;
26696;SDS011;14312;52.614;13.496;2023-09-19T10:24:44;4.40;;;2.20;;
26696;SDS011;14312;52.614;13.496;2023-09-19T10:27:32;5.28;;;2.28;;
26696;SDS011;14312;52.614;13.496;2023-09-19T10:30:23;7.72;;;2.67;;
26696;SDS011;14312;52.614;13.496;2023-09-19T10:33:11;3.22;;;2.08;;
26696;SDS011;14312;52.614;13.496;2023-09-19T10:35:59;2.72;;;2.10;;
26696;SDS011;14312;52.614;13.496;2023-09-19T10:38:45;3.10;;;2.30;;
26696;SDS011;14312;52.614;13.496;2023-09-19T10:41:32;3.08;;;2.38;;
26696;SDS011;14312;52.614;13.496;2023-09-19T10:44:21;3.10;;;2.10;;
26696;SDS011;14312;52.614;13.496;2023-09-19T10:47:10;3.38;;;2.22;;
26696;SDS011;14312;52.614;13.496;2023-09-19T10:49:57;3.90;;;2.15;;
26696;SDS011;14312;52.614;13.496;2023-09-19T10:52:44;3.33;;;2.25;;
26696;SDS011;14312;52.614;13.496;2023-09-19T10:55:31;2.30;;;2.10;;
26696;SDS011;14312;52.614;13.496;2023-09-19T10:58:27;3.83;;;2.42;;
26696;SDS011;14312;52.614;13.496;2023-09-19T11:01:15;2.78;;;2.28;;
26696;SDS011;14312;52.614;13.496;2023-09-19T11:04:20;2.42;;;1.75;;
26696;SDS011;14312;52.614;13.496;2023-09-19T11:07:14;3.05;;;2.22;;
26696;SDS011;14312;52.614;13.496;2023-09-19T11:10:01;3.45;;;2.30;;
26696;SDS011;14312;52.614;13.496;2023-09-19T11:12:48;3.17;;;2.17;;
26696;SDS011;14312;52.614;13.496;2023-09-19T11:27:13;3.47;;;1.60;;
26696;SDS011;14312;52.614;13.496;2023-09-19T11:36:16;3.15;;;1.88;;
26696;SDS011;14312;52.614;13.496;2023-09-19T11:39:24;3.53;;;2.03;;
26696;SDS011;14312;52.614;13.496;2023-09-19T11:48:32;3.47;;;2.00;;
26696;SDS011;14312;52.614;13.496;2023-09-19T11:51:21;3.90;;;2.15;;
26696;SDS011;14312;52.614;13.496;2023-09-19T11:54:10;4.70;;;2.00;;
26696;SDS011;14312;52.614;13.496;2023-09-19T11:57:20;4.07;;;2.17;;
26696;SDS011;14312;52.614;13.496;2023-09-19T12:00:07;3.40;;;2.17;;
26696;SDS011;14312;52.614;13.496;2023-09-19T12:03:04;2.15;;;1.77;;
26696;SDS011;14312;52.614;13.496;2023-09-19T12:05:55;4.90;;;1.70;;
26696;SDS011;14312;52.614;13.496;2023-09-19T12:08:41;4.85;;;1.80;;
26696;SDS011;14312;52.614;13.496;2023-09-19T12:11:29;3.22;;;1.83;;
26696;SDS011;14312;52.614;13.496;2023-09-19T12:14:22;3.85;;;1.70;;
26696;SDS011;14312;52.614;13.496;2023-09-19T12:17:10;2.38;;;1.50;;
26696;SDS011;14312;52.614;13.496;2023-09-19T12:19:58;2.67;;;1.80;;
26696;SDS011;14312;52.614;13.496;2023-09-19T12:22:45;3.67;;;1.92;;
26696;SDS011;14312;52.614;13.496;2023-09-19T12:25:41;3.83;;;1.83;;
26696;SDS011;14312;52.614;13.496;2023-09-19T12:28:38;4.30;;;1.92;;
26696;SDS011;14312;52.614;13.496;2023-09-19T12:31:27;3.45;;;2.00;;
26696;SDS011;14312;52.614;13.496;2023-09-19T12:34:15;2.88;;;2.00;;
26696;SDS011;14312;52.614;13.496;2023-09-19T12:37:14;2.75;;;1.67;;
26696;SDS011;14312;52.614;13.496;2023-09-19T12:40:06;2.00;;;1.80;;
26696;SDS011;14312;52.614;13.496;2023-09-19T12:43:02;2.75;;;1.75;;
26696;SDS011;14312;52.614;13.496;2023-09-19T12:45:50;4.00;;;2.05;;
26696;SDS011;14312;52.614;13.496;2023-09-19T12:48:38;3.53;;;1.88;;
26696;SDS011;14312;52.614;13.496;2023-09-19T12:51:34;4.88;;;2.00;;
26696;SDS011;14312;52.614;13.496;2023-09-19T12:54:20;3.70;;;2.08;;
26696;SDS011;14312;52.614;13.496;2023-09-19T12:57:07;2.05;;;1.25;;
26696;SDS011;14312;52.614;13.496;2023-09-19T12:59:53;4.50;;;1.60;;
26696;SDS011;14312;52.614;13.496;2023-09-19T13:03:08;2.22;;;1.60;;
26696;SDS011;14312;52.614;13.496;2023-09-19T13:05:56;4.20;;;1.92;;
26696;SDS011;14312;52.614;13.496;2023-09-19T13:08:43;2.92;;;1.77;;
26696;SDS011;14312;52.614;13.496;2023-09-19T13:11:38;2.95;;;1.65;;
26696;SDS011;14312;52.614;13.496;2023-09-19T13:14:26;3.85;;;2.08;;
26696;SDS011;14312;52.614;13.496;2023-09-19T13:17:14;2.58;;;1.67;;
26696;SDS011;14312;52.614;13.496;2023-09-19T13:20:04;2.75;;;1.60;;
26696;SDS011;14312;52.614;13.496;2023-09-19T13:22:53;2.85;;;1.67;;
26696;SDS011;14312;52.614;13.496;2023-09-19T13:25:55;3.00;;;1.60;;
26696;SDS011;14312;52.614;13.496;2023-09-19T13:28:41;2.25;;;1.40;;
26696;SDS011;14312;52.614;13.496;2023-09-19T13:31:29;1.85;;;1.40;;
26696;SDS011;14312;52.614;13.496;2023-09-19T13:34:15;2.53;;;1.58;;
26696;SDS011;14312;52.614;13.496;2023-09-19T13:37:03;3.15;;;1.45;;
26696;SDS011;14312;52.614;13.496;2023-09-19T13:39:50;2.58;;;1.48;;
26696;SDS011;14312;52.614;13.496;2023-09-19T13:42:36;2.65;;;1.70;;
26696;SDS011;14312;52.614;13.496;2023-09-19T13:45:22;2.08;;;1.25;;
26696;SDS011;14312;52.614;13.496;2023-09-19T13:48:10;1.80;;;1.30;;
26696;SDS011;14312;52.614;13.496;2023-09-19T13:50:58;3.35;;;1.70;;
26696;SDS011;14312;52.614;13.496;2023-09-19T13:53:45;3.15;;;1.60;;
26696;SDS011;14312;52.614;13.496;2023-09-19T13:56:31;2.30;;;1.40;;
26696;SDS011;14312;52.614;13.496;2023-09-19T13:59:17;2.85;;;1.77;;
26696;SDS011;14312;52.614;13.496;2023-09-19T14:02:03;2.80;;;1.80;;
26696;SDS011;14312;52.614;13.496;2023-09-19T14:04:51;2.42;;;1.60;;
26696;SDS011;14312;52.614;13.496;2023-09-19T14:07:38;2.08;;;1.52;;
26696;SDS011;14312;52.614;13.496;2023-09-19T14:10:23;2.92;;;1.90;;
26696;SDS011;14312;52.614;13.496;2023-09-19T14:13:11;3.22;;;1.60;;
26696;SDS011;14312;52.614;13.496;2023-09-19T14:16:05;3.28;;;2.00;;
26696;SDS011;14312;52.614;13.496;2023-09-19T14:18:54;2.35;;;1.33;;
26696;SDS011;14312;52.614;13.496;2023-09-19T14:21:40;2.03;;;1.50;;
26696;SDS011;14312;52.614;13.496;2023-09-19T14:24:26;1.58;;;1.30;;
26696;SDS011;14312;52.614;13.496;2023-09-19T14:27:11;3.28;;;1.60;;
26696;SDS011;14312;52.614;13.496;2023-09-19T14:29:58;3.67;;;1.60;;
26696;SDS011;14312;52.614;13.496;2023-09-19T14:32:43;5.88;;;1.63;;
26696;SDS011;14312;52.614;13.496;2023-09-19T14:35:29;2.65;;;1.58;;
26696;SDS011;14312;52.614;13.496;2023-09-19T14:38:15;2.75;;;1.55;;
26696;SDS011;14312;52.614;13.496;2023-09-19T14:41:02;2.38;;;1.63;;
26696;SDS011;14312;52.614;13.496;2023-09-19T14:43:49;3.13;;;1.58;;
26696;SDS011;14312;52.614;13.496;2023-09-19T14:46:35;2.65;;;1.70;;
26696;SDS011;14312;52.614;13.496;2023-09-19T14:49:21;2.25;;;1.73;;
26696;SDS011;14312;52.614;13.496;2023-09-19T14:52:07;3.45;;;1.50;;
26696;SDS011;14312;52.614;13.496;2023-09-19T14:54:54;2.10;;;1.48;;
26696;SDS011;14312;52.614;13.496;2023-09-19T14:57:41;2.35;;;1.52;;
26696;SDS011;14312;52.614;13.496;2023-09-19T15:00:30;3.22;;;1.40;;
26696;SDS011;14312;52.614;13.496;2023-09-19T15:03:15;2.45;;;1.63;;
26696;SDS011;14312;52.614;13.496;2023-09-19T15:06:02;2.13;;;1.50;;
26696;SDS011;14312;52.614;13.496;2023-09-19T15:08:50;2.22;;;1.40;;
26696;SDS011;14312;52.614;13.496;2023-09-19T15:11:36;1.90;;;1.60;;
26696;SDS011;14312;52.614;13.496;2023-09-19T15:14:22;6.78;;;1.88;;
26696;SDS011;14312;52.614;13.496;2023-09-19T15:17:10;4.38;;;1.60;;
26696;SDS011;14312;52.614;13.496;2023-09-19T15:19:56;1.50;;;1.30;;
26696;SDS011;14312;52.614;13.496;2023-09-19T15:22:42;1.73;;;1.30;;
26696;SDS011;14312;52.614;13.496;2023-09-19T15:25:28;2.60;;;1.55;;
26696;SDS011;14312;52.614;13.496;2023-09-19T15:28:14;2.33;;;1.70;;
26696;SDS011;14312;52.614;13.496;2023-09-19T15:31:10;2.58;;;1.83;;
26696;SDS011;14312;52.614;13.496;2023-09-19T15:33:57;4.30;;;1.63;;
26696;SDS011;14312;52.614;13.496;2023-09-19T15:36:43;3.45;;;1.55;;
26696;SDS011;14312;52.614;13.496;2023-09-19T15:39:30;3.83;;;1.83;;
26696;SDS011;14312;52.614;13.496;2023-09-19T15:42:19;2.42;;;1.80;;
26696;SDS011;14312;52.614;13.496;2023-09-19T15:45:05;3.10;;;2.03;;
26696;SDS011;14312;52.614;13.496;2023-09-19T15:47:51;2.30;;;1.40;;
26696;SDS011;14312;52.614;13.496;2023-09-19T15:50:37;1.67;;;1.42;;
26696;SDS011;14312;52.614;13.496;2023-09-19T15:53:23;4.03;;;2.10;;
26696;SDS011;14312;52.614;13.496;2023-09-19T15:56:09;2.47;;;1.50;;
26696;SDS011;14312;52.614;13.496;2023-09-19T15:58:55;2.53;;;1.80;;
26696;SDS011;14312;52.614;13.496;2023-09-19T16:01:42;3.42;;;1.83;;
26696;SDS011;14312;52.614;13.496;2023-09-19T16:04:29;2.33;;;1.67;;
26696;SDS011;14312;52.614;13.496;2023-09-19T16:07:16;2.00;;;1.67;;
26696;SDS011;14312;52.614;13.496;2023-09-19T16:10:04;2.63;;;1.90;;
26696;SDS011;14312;52.614;13.496;2023-09-19T16:12:50;2.75;;;1.98;;
26696;SDS011;14312;52.614;13.496;2023-09-19T16:15:41;2.42;;;1.77;;
26696;SDS011;14312;52.614;13.496;2023-09-19T16:18:28;2.40;;;1.70;;
26696;SDS011;14312;52.614;13.496;2023-09-19T16:21:14;3.58;;;1.85;;
26696;SDS011;14312;52.614;13.496;2023-09-19T16:24:00;2.38;;;1.60;;
26696;SDS011;14312;52.614;13.496;2023-09-19T16:26:46;2.75;;;1.60;;
26696;SDS011;14312;52.614;13.496;2023-09-19T16:29:32;2.45;;;1.60;;
26696;SDS011;14312;52.614;13.496;2023-09-19T16:32:18;2.10;;;1.88;;
26696;SDS011;14312;52.614;13.496;2023-09-19T16:35:05;2.13;;;1.60;;
26696;SDS011;14312;52.614;13.496;2023-09-19T16:37:52;2.33;;;1.65;;
26696;SDS011;14312;52.614;13.496;2023-09-19T16:40:37;1.85;;;1.67;;
26696;SDS011;14312;52.614;13.496;2023-09-19T16:43:24;2.88;;;1.80;;
26696;SDS011;14312;52.614;13.496;2023-09-19T16:46:12;1.95;;;1.75;;
26696;SDS011;14312;52.614;13.496;2023-09-19T16:48:58;2.08;;;1.70;;
26696;SDS011;14312;52.614;13.496;2023-09-19T16:51:44;3.60;;;2.13;;
26696;SDS011;14312;52.614;13.496;2023-09-19T16:54:31;2.60;;;1.92;;
26696;SDS011;14312;52.614;13.496;2023-09-19T16:57:17;2.97;;;2.10;;
26696;SDS011;14312;52.614;13.496;2023-09-19T17:00:04;3.97;;;1.98;;
26696;SDS011;14312;52.614;13.496;2023-09-19T17:02:51;2.92;;;2.00;;
26696;SDS011;14312;52.614;13.496;2023-09-19T17:05:37;2.00;;;1.77;;
26696;SDS011;14312;52.614;13.496;2023-09-19T17:08:25;2.28;;;1.63;;
26696;SDS011;14312;52.614;13.496;2023-09-19T17:11:14;2.88;;;1.70;;
26696;SDS011;14312;52.614;13.496;2023-09-19T17:14:02;2.45;;;1.98;;
26696;SDS011;14312;52.614;13.496;2023-09-19T17:16:49;2.60;;;1.75;;
26696;SDS011;14312;52.614;13.496;2023-09-19T17:19:35;2.00;;;1.75;;
26696;SDS011;14312;52.614;13.496;2023-09-19T17:22:21;2.35;;;1.48;;
26696;SDS011;14312;52.614;13.496;2023-09-19T17:25:07;1.70;;;1.60;;
26696;SDS011;14312;52.614;13.496;2023-09-19T17:27:53;2.55;;;1.85;;
26696;SDS011;14312;52.614;13.496;2023-09-19T17:30:39;2.53;;;1.90;;
26696;SDS011;14312;52.614;13.496;2023-09-19T17:33:26;2.33;;;1.60;;
26696;SDS011;14312;52.614;13.496;2023-09-19T17:36:16;1.70;;;1.58;;